sensor_id;sensor_type;location;lat;lon;timestamp;temperature;humidity
70079;DHT22;57451;52.496;13.456;2023-03-01T00:02:17;0.30;63.90
70079;DHT22;57451;52.496;13.456;2023-03-01T00:04:44;0.30;63.20
70079;DHT22;57451;52.496;13.456;2023-03-01T00:07:13;0.30;63.30
70079;DHT22;57451;52.496;13.456;2023-03-01T00:09:40;0.30;63.50
70079;DHT22;57451;52.496;13.456;2023-03-01T00:12:07;0.20;63.60
70079;DHT22;57451;52.496;13.456;2023-03-01T00:14:35;0.20;63.70
70079;DHT22;57451;52.496;13.456;2023-03-01T00:17:03;0.10;63.70
70079;DHT22;57451;52.496;13.456;2023-03-01T00:19:30;0.10;63.50
70079;DHT22;57451;52.496;13.456;2023-03-01T00:21:59;0.10;63.80
70079;DHT22;57451;52.496;13.456;2023-03-01T00:24:28;0.10;63.60
70079;DHT22;57451;52.496;13.456;2023-03-01T00:26:55;0.10;63.50
70079;DHT22;57451;52.496;13.456;2023-03-01T00:29:23;0.00;63.70
70079;DHT22;57451;52.496;13.456;2023-03-01T00:31:51;0.00;63.70
70079;DHT22;57451;52.496;13.456;2023-03-01T00:34:18;0.00;63.60
70079;DHT22;57451;52.496;13.456;2023-03-01T00:36:45;0.00;63.30
70079;DHT22;57451;52.496;13.456;2023-03-01T00:39:14;0.10;62.90
70079;DHT22;57451;52.496;13.456;2023-03-01T00:41:43;0.00;62.90
70079;DHT22;57451;52.496;13.456;2023-03-01T00:44:10;0.00;62.80
70079;DHT22;57451;52.496;13.456;2023-03-01T00:46:38;-0.10;62.80
70079;DHT22;57451;52.496;13.456;2023-03-01T00:49:05;-0.10;62.80
70079;DHT22;57451;52.496;13.456;2023-03-01T00:51:33;-0.10;63.10
70079;DHT22;57451;52.496;13.456;2023-03-01T00:54:01;-0.10;62.90
70079;DHT22;57451;52.496;13.456;2023-03-01T00:56:30;-0.20;62.80
70079;DHT22;57451;52.496;13.456;2023-03-01T00:58:59;-0.20;63.00
70079;DHT22;57451;52.496;13.456;2023-03-01T01:01:28;-0.30;63.10
70079;DHT22;57451;52.496;13.456;2023-03-01T01:04:00;-0.20;63.30
70079;DHT22;57451;52.496;13.456;2023-03-01T01:06:30;-0.20;63.20
70079;DHT22;57451;52.496;13.456;2023-03-01T01:08:58;-0.30;63.30
70079;DHT22;57451;52.496;13.456;2023-03-01T01:11:27;-0.30;63.60
70079;DHT22;57451;52.496;13.456;2023-03-01T01:13:55;-0.30;64.00
70079;DHT22;57451;52.496;13.456;2023-03-01T01:16:25;-0.30;64.20
70079;DHT22;57451;52.496;13.456;2023-03-01T01:18:53;-0.40;64.40
70079;DHT22;57451;52.496;13.456;2023-03-01T01:21:22;-0.40;64.50
70079;DHT22;57451;52.496;13.456;2023-03-01T01:23:50;-0.40;64.60
70079;DHT22;57451;52.496;13.456;2023-03-01T01:26:19;-0.40;64.50
70079;DHT22;57451;52.496;13.456;2023-03-01T01:28:47;-0.40;64.40
70079;DHT22;57451;52.496;13.456;2023-03-01T01:31:15;-0.40;64.30
70079;DHT22;57451;52.496;13.456;2023-03-01T01:33:44;-0.50;64.20
70079;DHT22;57451;52.496;13.456;2023-03-01T01:36:12;-0.50;63.40
70079;DHT22;57451;52.496;13.456;2023-03-01T01:38:39;-0.50;63.20
70079;DHT22;57451;52.496;13.456;2023-03-01T01:41:06;-0.50;64.00
70079;DHT22;57451;52.496;13.456;2023-03-01T01:43:35;-0.50;64.30
70079;DHT22;57451;52.496;13.456;2023-03-01T01:46:05;-0.50;64.80
70079;DHT22;57451;52.496;13.456;2023-03-01T01:48:39;-0.50;64.90
70079;DHT22;57451;52.496;13.456;2023-03-01T01:51:12;-0.50;64.70
70079;DHT22;57451;52.496;13.456;2023-03-01T01:53:41;-0.50;64.80
70079;DHT22;57451;52.496;13.456;2023-03-01T01:56:11;-0.50;64.80
70079;DHT22;57451;52.496;13.456;2023-03-01T01:58:41;-0.60;65.10
70079;DHT22;57451;52.496;13.456;2023-03-01T02:01:10;-0.60;65.00
70079;DHT22;57451;52.496;13.456;2023-03-01T02:03:40;-0.50;64.60
70079;DHT22;57451;52.496;13.456;2023-03-01T02:06:17;-0.40;64.30
70079;DHT22;57451;52.496;13.456;2023-03-01T02:08:48;-0.40;64.10
70079;DHT22;57451;52.496;13.456;2023-03-01T02:11:17;-0.30;64.10
70079;DHT22;57451;52.496;13.456;2023-03-01T02:13:48;-0.30;64.40
70079;DHT22;57451;52.496;13.456;2023-03-01T02:16:16;-0.30;64.20
70079;DHT22;57451;52.496;13.456;2023-03-01T02:18:44;-0.40;64.70
70079;DHT22;57451;52.496;13.456;2023-03-01T02:21:27;-0.50;64.80
70079;DHT22;57451;52.496;13.456;2023-03-01T02:23:58;-0.50;64.90
70079;DHT22;57451;52.496;13.456;2023-03-01T02:26:33;-0.60;65.20
70079;DHT22;57451;52.496;13.456;2023-03-01T02:29:03;-0.60;65.60
70079;DHT22;57451;52.496;13.456;2023-03-01T02:31:32;-0.60;65.80
70079;DHT22;57451;52.496;13.456;2023-03-01T02:34:13;-0.70;65.90
70079;DHT22;57451;52.496;13.456;2023-03-01T02:36:44;-0.70;66.40
70079;DHT22;57451;52.496;13.456;2023-03-01T02:39:14;-0.70;66.60
70079;DHT22;57451;52.496;13.456;2023-03-01T02:41:47;-0.70;66.70
70079;DHT22;57451;52.496;13.456;2023-03-01T02:44:17;-0.80;66.90
70079;DHT22;57451;52.496;13.456;2023-03-01T02:46:47;-0.80;66.70
70079;DHT22;57451;52.496;13.456;2023-03-01T02:49:20;-0.80;66.60
70079;DHT22;57451;52.496;13.456;2023-03-01T02:51:59;-0.70;66.40
70079;DHT22;57451;52.496;13.456;2023-03-01T02:54:31;-0.70;66.20
70079;DHT22;57451;52.496;13.456;2023-03-01T02:57:01;-0.60;66.00
70079;DHT22;57451;52.496;13.456;2023-03-01T02:59:34;-0.60;66.10
70079;DHT22;57451;52.496;13.456;2023-03-01T03:02:07;-0.60;66.10
70079;DHT22;57451;52.496;13.456;2023-03-01T03:04:34;-0.50;65.90
70079;DHT22;57451;52.496;13.456;2023-03-01T03:07:02;-0.60;66.20
70079;DHT22;57451;52.496;13.456;2023-03-01T03:09:29;-0.60;66.40
70079;DHT22;57451;52.496;13.456;2023-03-01T03:11:56;-0.60;66.50
70079;DHT22;57451;52.496;13.456;2023-03-01T03:14:24;-0.70;66.90
70079;DHT22;57451;52.496;13.456;2023-03-01T03:16:52;-0.70;66.80
70079;DHT22;57451;52.496;13.456;2023-03-01T03:19:20;-0.80;67.20
70079;DHT22;57451;52.496;13.456;2023-03-01T03:21:47;-0.80;67.50
70079;DHT22;57451;52.496;13.456;2023-03-01T03:24:14;-0.80;67.50
70079;DHT22;57451;52.496;13.456;2023-03-01T03:26:41;-0.90;67.30
70079;DHT22;57451;52.496;13.456;2023-03-01T03:29:09;-0.90;67.40
70079;DHT22;57451;52.496;13.456;2023-03-01T03:31:36;-1.00;67.80
70079;DHT22;57451;52.496;13.456;2023-03-01T03:34:05;-1.00;67.60
70079;DHT22;57451;52.496;13.456;2023-03-01T03:36:32;-0.90;67.10
70079;DHT22;57451;52.496;13.456;2023-03-01T03:38:59;-0.90;66.70
70079;DHT22;57451;52.496;13.456;2023-03-01T03:41:26;-0.90;66.50
70079;DHT22;57451;52.496;13.456;2023-03-01T03:43:54;-0.90;66.60
70079;DHT22;57451;52.496;13.456;2023-03-01T03:46:21;-0.90;66.30
70079;DHT22;57451;52.496;13.456;2023-03-01T03:48:48;-0.80;66.00
70079;DHT22;57451;52.496;13.456;2023-03-01T03:51:18;-0.80;66.10
70079;DHT22;57451;52.496;13.456;2023-03-01T03:53:45;-0.90;66.30
70079;DHT22;57451;52.496;13.456;2023-03-01T03:56:13;-0.90;66.50
70079;DHT22;57451;52.496;13.456;2023-03-01T03:58:40;-0.90;66.50
70079;DHT22;57451;52.496;13.456;2023-03-01T04:01:07;-0.90;66.30
70079;DHT22;57451;52.496;13.456;2023-03-01T04:03:35;-1.00;66.60
70079;DHT22;57451;52.496;13.456;2023-03-01T04:06:02;-1.10;66.00
70079;DHT22;57451;52.496;13.456;2023-03-01T04:08:32;-1.10;66.10
70079;DHT22;57451;52.496;13.456;2023-03-01T04:11:01;-1.20;66.30
70079;DHT22;57451;52.496;13.456;2023-03-01T04:13:49;-1.20;66.60
70079;DHT22;57451;52.496;13.456;2023-03-01T04:16:16;-1.30;67.00
70079;DHT22;57451;52.496;13.456;2023-03-01T04:18:46;-1.30;67.10
70079;DHT22;57451;52.496;13.456;2023-03-01T04:21:13;-1.20;66.80
70079;DHT22;57451;52.496;13.456;2023-03-01T04:23:42;-1.30;66.60
70079;DHT22;57451;52.496;13.456;2023-03-01T04:26:09;-1.30;66.90
70079;DHT22;57451;52.496;13.456;2023-03-01T04:28:39;-1.30;66.80
70079;DHT22;57451;52.496;13.456;2023-03-01T04:31:09;-1.30;66.60
70079;DHT22;57451;52.496;13.456;2023-03-01T04:33:46;-1.30;66.80
70079;DHT22;57451;52.496;13.456;2023-03-01T04:36:14;-1.40;66.70
70079;DHT22;57451;52.496;13.456;2023-03-01T04:38:44;-1.40;67.00
70079;DHT22;57451;52.496;13.456;2023-03-01T04:41:16;-1.40;67.10
70079;DHT22;57451;52.496;13.456;2023-03-01T04:43:44;-1.40;66.80
70079;DHT22;57451;52.496;13.456;2023-03-01T04:46:13;-1.40;66.80
70079;DHT22;57451;52.496;13.456;2023-03-01T04:48:43;-1.50;67.00
70079;DHT22;57451;52.496;13.456;2023-03-01T04:51:11;-1.50;67.30
70079;DHT22;57451;52.496;13.456;2023-03-01T04:53:41;-1.60;67.60
70079;DHT22;57451;52.496;13.456;2023-03-01T04:56:10;-1.60;67.50
70079;DHT22;57451;52.496;13.456;2023-03-01T04:58:37;-1.60;67.80
70079;DHT22;57451;52.496;13.456;2023-03-01T05:01:09;-1.60;67.80
70079;DHT22;57451;52.496;13.456;2023-03-01T05:03:43;-1.60;67.80
70079;DHT22;57451;52.496;13.456;2023-03-01T05:06:11;-1.70;68.00
70079;DHT22;57451;52.496;13.456;2023-03-01T05:08:38;-1.60;67.60
70079;DHT22;57451;52.496;13.456;2023-03-01T05:11:06;-1.60;67.80
70079;DHT22;57451;52.496;13.456;2023-03-01T05:13:38;-1.70;67.50
70079;DHT22;57451;52.496;13.456;2023-03-01T05:16:07;-1.70;67.50
70079;DHT22;57451;52.496;13.456;2023-03-01T05:18:39;-1.70;67.80
70079;DHT22;57451;52.496;13.456;2023-03-01T05:21:09;-1.70;67.90
70079;DHT22;57451;52.496;13.456;2023-03-01T05:23:36;-1.70;67.90
70079;DHT22;57451;52.496;13.456;2023-03-01T05:26:05;-1.70;68.20
70079;DHT22;57451;52.496;13.456;2023-03-01T05:28:38;-1.80;68.50
70079;DHT22;57451;52.496;13.456;2023-03-01T05:31:06;-1.80;68.70
70079;DHT22;57451;52.496;13.456;2023-03-01T05:33:37;-1.80;68.90
70079;DHT22;57451;52.496;13.456;2023-03-01T05:36:05;-1.80;69.10
70079;DHT22;57451;52.496;13.456;2023-03-01T05:38:33;-1.90;69.50
70079;DHT22;57451;52.496;13.456;2023-03-01T05:41:00;-1.90;69.40
70079;DHT22;57451;52.496;13.456;2023-03-01T05:43:30;-1.90;69.40
70079;DHT22;57451;52.496;13.456;2023-03-01T05:46:02;-1.80;69.00
70079;DHT22;57451;52.496;13.456;2023-03-01T05:48:29;-1.90;69.10
70079;DHT22;57451;52.496;13.456;2023-03-01T05:50:59;-1.90;68.80
70079;DHT22;57451;52.496;13.456;2023-03-01T05:53:27;-1.90;68.80
70079;DHT22;57451;52.496;13.456;2023-03-01T05:55:54;-2.00;69.10
70079;DHT22;57451;52.496;13.456;2023-03-01T05:58:21;-2.00;69.30
70079;DHT22;57451;52.496;13.456;2023-03-01T06:00:49;-2.00;69.50
70079;DHT22;57451;52.496;13.456;2023-03-01T06:03:18;-1.90;69.30
70079;DHT22;57451;52.496;13.456;2023-03-01T06:05:45;-1.90;69.20
70079;DHT22;57451;52.496;13.456;2023-03-01T06:08:13;-1.80;69.10
70079;DHT22;57451;52.496;13.456;2023-03-01T06:10:40;-1.80;68.70
70079;DHT22;57451;52.496;13.456;2023-03-01T06:13:08;-1.70;68.50
70079;DHT22;57451;52.496;13.456;2023-03-01T06:15:35;-1.80;68.20
70079;DHT22;57451;52.496;13.456;2023-03-01T06:18:03;-1.80;68.80
70079;DHT22;57451;52.496;13.456;2023-03-01T06:20:31;-1.80;69.20
70079;DHT22;57451;52.496;13.456;2023-03-01T06:22:58;-1.80;69.00
70079;DHT22;57451;52.496;13.456;2023-03-01T06:25:27;-1.90;69.20
70079;DHT22;57451;52.496;13.456;2023-03-01T06:27:55;-1.90;68.90
70079;DHT22;57451;52.496;13.456;2023-03-01T06:30:24;-1.90;69.20
70079;DHT22;57451;52.496;13.456;2023-03-01T06:32:52;-1.90;69.30
70079;DHT22;57451;52.496;13.456;2023-03-01T06:35:19;-1.90;69.00
70079;DHT22;57451;52.496;13.456;2023-03-01T06:37:48;-1.90;69.00
70079;DHT22;57451;52.496;13.456;2023-03-01T06:40:16;-1.90;69.00
70079;DHT22;57451;52.496;13.456;2023-03-01T06:42:47;-1.90;68.80
70079;DHT22;57451;52.496;13.456;2023-03-01T06:45:17;-1.90;68.40
70079;DHT22;57451;52.496;13.456;2023-03-01T06:47:45;-1.80;68.40
70079;DHT22;57451;52.496;13.456;2023-03-01T06:50:13;-1.80;68.40
70079;DHT22;57451;52.496;13.456;2023-03-01T06:52:41;-1.80;68.20
70079;DHT22;57451;52.496;13.456;2023-03-01T06:55:10;-1.70;68.70
70079;DHT22;57451;52.496;13.456;2023-03-01T06:57:37;-1.60;68.30
70079;DHT22;57451;52.496;13.456;2023-03-01T07:00:06;-1.50;68.30
70079;DHT22;57451;52.496;13.456;2023-03-01T07:02:34;-1.50;68.30
70079;DHT22;57451;52.496;13.456;2023-03-01T07:05:01;-1.40;68.80
70079;DHT22;57451;52.496;13.456;2023-03-01T07:07:28;-1.30;69.00
70079;DHT22;57451;52.496;13.456;2023-03-01T07:09:55;-1.20;69.30
70079;DHT22;57451;52.496;13.456;2023-03-01T07:12:24;-1.10;69.20
70079;DHT22;57451;52.496;13.456;2023-03-01T07:14:51;-1.00;68.80
70079;DHT22;57451;52.496;13.456;2023-03-01T07:17:18;-0.90;67.90
70079;DHT22;57451;52.496;13.456;2023-03-01T07:19:46;-0.80;67.30
70079;DHT22;57451;52.496;13.456;2023-03-01T07:22:13;-0.70;68.00
70079;DHT22;57451;52.496;13.456;2023-03-01T07:24:40;-0.50;68.50
70079;DHT22;57451;52.496;13.456;2023-03-01T07:27:08;-0.30;68.90
70079;DHT22;57451;52.496;13.456;2023-03-01T07:29:36;-0.10;68.80
70079;DHT22;57451;52.496;13.456;2023-03-01T07:32:04;0.10;68.40
70079;DHT22;57451;52.496;13.456;2023-03-01T07:34:32;0.30;68.30
70079;DHT22;57451;52.496;13.456;2023-03-01T07:36:59;0.50;68.10
70079;DHT22;57451;52.496;13.456;2023-03-01T07:39:27;0.70;67.90
70079;DHT22;57451;52.496;13.456;2023-03-01T07:41:54;0.90;67.80
70079;DHT22;57451;52.496;13.456;2023-03-01T07:44:22;1.10;67.40
70079;DHT22;57451;52.496;13.456;2023-03-01T07:46:51;1.40;67.10
70079;DHT22;57451;52.496;13.456;2023-03-01T07:49:23;1.60;66.70
70079;DHT22;57451;52.496;13.456;2023-03-01T07:51:50;1.80;66.10
70079;DHT22;57451;52.496;13.456;2023-03-01T07:54:17;2.10;65.40
70079;DHT22;57451;52.496;13.456;2023-03-01T07:56:45;2.30;64.60
70079;DHT22;57451;52.496;13.456;2023-03-01T07:59:12;2.40;64.20
70079;DHT22;57451;52.496;13.456;2023-03-01T08:01:40;2.60;63.80
70079;DHT22;57451;52.496;13.456;2023-03-01T08:04:09;2.90;63.40
70079;DHT22;57451;52.496;13.456;2023-03-01T08:06:36;3.10;62.70
70079;DHT22;57451;52.496;13.456;2023-03-01T08:09:04;3.30;62.50
70079;DHT22;57451;52.496;13.456;2023-03-01T08:11:31;3.60;61.80
70079;DHT22;57451;52.496;13.456;2023-03-01T08:13:58;3.80;61.30
70079;DHT22;57451;52.496;13.456;2023-03-01T08:16:26;3.90;59.70
70079;DHT22;57451;52.496;13.456;2023-03-01T08:18:53;4.10;60.00
70079;DHT22;57451;52.496;13.456;2023-03-01T08:21:24;4.40;59.70
70079;DHT22;57451;52.496;13.456;2023-03-01T08:23:52;4.70;58.90
70079;DHT22;57451;52.496;13.456;2023-03-01T08:26:20;5.00;57.10
70079;DHT22;57451;52.496;13.456;2023-03-01T08:28:48;5.40;56.60
70079;DHT22;57451;52.496;13.456;2023-03-01T08:31:18;5.70;56.40
70079;DHT22;57451;52.496;13.456;2023-03-01T08:33:46;6.00;55.70
70079;DHT22;57451;52.496;13.456;2023-03-01T08:36:18;6.20;54.00
70079;DHT22;57451;52.496;13.456;2023-03-01T08:38:48;6.10;54.40
70079;DHT22;57451;52.496;13.456;2023-03-01T08:41:15;6.40;54.60
70079;DHT22;57451;52.496;13.456;2023-03-01T08:43:43;6.80;53.20
70079;DHT22;57451;52.496;13.456;2023-03-01T08:46:10;7.20;50.70
70079;DHT22;57451;52.496;13.456;2023-03-01T08:48:38;7.60;50.80
70079;DHT22;57451;52.496;13.456;2023-03-01T08:51:09;7.80;49.20
70079;DHT22;57451;52.496;13.456;2023-03-01T08:53:37;8.20;49.40
70079;DHT22;57451;52.496;13.456;2023-03-01T08:56:06;8.50;49.00
70079;DHT22;57451;52.496;13.456;2023-03-01T08:58:34;8.80;47.70
70079;DHT22;57451;52.496;13.456;2023-03-01T09:01:06;9.10;47.00
70079;DHT22;57451;52.496;13.456;2023-03-01T09:03:34;9.40;47.00
70079;DHT22;57451;52.496;13.456;2023-03-01T09:06:02;9.70;47.10
70079;DHT22;57451;52.496;13.456;2023-03-01T09:08:30;10.00;45.80
70079;DHT22;57451;52.496;13.456;2023-03-01T09:10:58;10.30;43.40
70079;DHT22;57451;52.496;13.456;2023-03-01T09:13:29;10.50;42.90
70079;DHT22;57451;52.496;13.456;2023-03-01T09:16:01;10.80;43.30
70079;DHT22;57451;52.496;13.456;2023-03-01T09:18:29;11.00;42.50
70079;DHT22;57451;52.496;13.456;2023-03-01T09:21:01;11.30;42.80
70079;DHT22;57451;52.496;13.456;2023-03-01T09:23:28;11.60;42.40
70079;DHT22;57451;52.496;13.456;2023-03-01T09:25:55;11.80;42.00
70079;DHT22;57451;52.496;13.456;2023-03-01T09:28:22;12.10;41.60
70079;DHT22;57451;52.496;13.456;2023-03-01T09:30:59;12.40;41.60
70079;DHT22;57451;52.496;13.456;2023-03-01T09:33:27;12.70;41.90
70079;DHT22;57451;52.496;13.456;2023-03-01T09:35:58;12.90;38.60
70079;DHT22;57451;52.496;13.456;2023-03-01T09:38:26;13.20;38.60
70079;DHT22;57451;52.496;13.456;2023-03-01T09:40:53;13.40;37.20
70079;DHT22;57451;52.496;13.456;2023-03-01T09:43:23;13.60;37.80
70079;DHT22;57451;52.496;13.456;2023-03-01T09:45:53;13.80;37.60
70079;DHT22;57451;52.496;13.456;2023-03-01T09:48:26;14.00;38.50
70079;DHT22;57451;52.496;13.456;2023-03-01T09:50:54;14.20;35.70
70079;DHT22;57451;52.496;13.456;2023-03-01T09:53:26;14.40;36.00
70079;DHT22;57451;52.496;13.456;2023-03-01T09:55:57;14.50;34.30
70079;DHT22;57451;52.496;13.456;2023-03-01T09:58:34;14.60;36.00
70079;DHT22;57451;52.496;13.456;2023-03-01T10:01:14;14.80;36.90
70079;DHT22;57451;52.496;13.456;2023-03-01T10:04:12;15.10;36.30
70079;DHT22;57451;52.496;13.456;2023-03-01T10:06:58;15.40;37.60
70079;DHT22;57451;52.496;13.456;2023-03-01T10:09:33;15.70;36.90
70079;DHT22;57451;52.496;13.456;2023-03-01T10:12:02;16.10;36.30
70079;DHT22;57451;52.496;13.456;2023-03-01T10:14:35;16.30;35.80
70079;DHT22;57451;52.496;13.456;2023-03-01T10:17:08;16.60;35.40
70079;DHT22;57451;52.496;13.456;2023-03-01T10:19:40;16.90;34.90
70079;DHT22;57451;52.496;13.456;2023-03-01T10:22:13;17.10;33.00
70079;DHT22;57451;52.496;13.456;2023-03-01T10:24:41;17.30;35.00
70079;DHT22;57451;52.496;13.456;2023-03-01T10:27:13;17.60;34.80
70079;DHT22;57451;52.496;13.456;2023-03-01T10:29:48;17.90;33.50
70079;DHT22;57451;52.496;13.456;2023-03-01T10:32:17;18.10;32.60
70079;DHT22;57451;52.496;13.456;2023-03-01T10:34:46;18.30;32.60
70079;DHT22;57451;52.496;13.456;2023-03-01T10:37:15;18.50;31.90
70079;DHT22;57451;52.496;13.456;2023-03-01T10:39:56;18.60;31.50
70079;DHT22;57451;52.496;13.456;2023-03-01T10:42:28;18.80;33.60
70079;DHT22;57451;52.496;13.456;2023-03-01T10:44:56;19.00;31.50
70079;DHT22;57451;52.496;13.456;2023-03-01T10:47:25;19.10;31.40
70079;DHT22;57451;52.496;13.456;2023-03-01T10:49:57;19.10;31.50
70079;DHT22;57451;52.496;13.456;2023-03-01T10:52:28;19.40;32.30
70079;DHT22;57451;52.496;13.456;2023-03-01T10:54:57;19.60;29.80
70079;DHT22;57451;52.496;13.456;2023-03-01T10:57:33;19.70;30.50
70079;DHT22;57451;52.496;13.456;2023-03-01T11:00:24;19.80;30.50
70079;DHT22;57451;52.496;13.456;2023-03-01T11:03:03;20.00;31.00
70079;DHT22;57451;52.496;13.456;2023-03-01T11:06:00;20.10;29.50
70079;DHT22;57451;52.496;13.456;2023-03-01T11:08:33;20.10;30.00
70079;DHT22;57451;52.496;13.456;2023-03-01T11:11:10;20.20;29.10
70079;DHT22;57451;52.496;13.456;2023-03-01T11:13:52;20.30;30.80
70079;DHT22;57451;52.496;13.456;2023-03-01T11:19:18;20.50;29.70
70079;DHT22;57451;52.496;13.456;2023-03-01T11:21:58;20.50;27.80
70079;DHT22;57451;52.496;13.456;2023-03-01T11:24:32;20.50;27.90
70079;DHT22;57451;52.496;13.456;2023-03-01T11:27:03;20.30;27.80
70079;DHT22;57451;52.496;13.456;2023-03-01T11:29:35;20.10;28.80
70079;DHT22;57451;52.496;13.456;2023-03-01T11:32:15;20.10;29.60
70079;DHT22;57451;52.496;13.456;2023-03-01T11:34:45;20.00;29.00
70079;DHT22;57451;52.496;13.456;2023-03-01T11:37:23;20.00;28.00
70079;DHT22;57451;52.496;13.456;2023-03-01T11:39:58;19.90;28.20
70079;DHT22;57451;52.496;13.456;2023-03-01T11:42:35;19.90;28.80
70079;DHT22;57451;52.496;13.456;2023-03-01T11:45:08;19.80;27.70
70079;DHT22;57451;52.496;13.456;2023-03-01T11:47:47;19.70;28.70
70079;DHT22;57451;52.496;13.456;2023-03-01T11:50:28;19.60;28.90
70079;DHT22;57451;52.496;13.456;2023-03-01T11:53:08;19.50;28.00
70079;DHT22;57451;52.496;13.456;2023-03-01T11:55:51;19.50;26.40
70079;DHT22;57451;52.496;13.456;2023-03-01T11:58:34;19.40;27.50
70079;DHT22;57451;52.496;13.456;2023-03-01T12:01:16;19.40;27.40
70079;DHT22;57451;52.496;13.456;2023-03-01T12:04:24;19.40;29.10
70079;DHT22;57451;52.496;13.456;2023-03-01T12:07:00;19.40;28.90
70079;DHT22;57451;52.496;13.456;2023-03-01T12:09:39;19.30;26.70
70079;DHT22;57451;52.496;13.456;2023-03-01T12:15:37;19.10;28.40
70079;DHT22;57451;52.496;13.456;2023-03-01T12:18:16;19.10;28.30
70079;DHT22;57451;52.496;13.456;2023-03-01T12:20:54;19.00;29.50
70079;DHT22;57451;52.496;13.456;2023-03-01T12:23:43;19.10;28.60
70079;DHT22;57451;52.496;13.456;2023-03-01T12:26:21;19.00;28.90
70079;DHT22;57451;52.496;13.456;2023-03-01T12:29:02;18.90;28.40
70079;DHT22;57451;52.496;13.456;2023-03-01T12:32:15;19.00;28.20
70079;DHT22;57451;52.496;13.456;2023-03-01T12:37:54;19.30;28.60
70079;DHT22;57451;52.496;13.456;2023-03-01T12:40:33;19.60;27.90
70079;DHT22;57451;52.496;13.456;2023-03-01T12:43:17;19.70;28.00
70079;DHT22;57451;52.496;13.456;2023-03-01T12:45:54;19.90;28.70
70079;DHT22;57451;52.496;13.456;2023-03-01T12:48:33;20.00;26.90
70079;DHT22;57451;52.496;13.456;2023-03-01T12:51:06;20.10;27.40
70079;DHT22;57451;52.496;13.456;2023-03-01T12:53:36;20.00;26.70
70079;DHT22;57451;52.496;13.456;2023-03-01T12:56:06;19.80;25.30
70079;DHT22;57451;52.496;13.456;2023-03-01T12:58:40;19.60;27.70
70079;DHT22;57451;52.496;13.456;2023-03-01T13:01:24;19.70;28.30
70079;DHT22;57451;52.496;13.456;2023-03-01T13:04:16;19.90;28.00
70079;DHT22;57451;52.496;13.456;2023-03-01T13:06:54;19.90;27.60
70079;DHT22;57451;52.496;13.456;2023-03-01T13:09:29;19.90;26.70
70079;DHT22;57451;52.496;13.456;2023-03-01T13:11:57;19.90;27.20
70079;DHT22;57451;52.496;13.456;2023-03-01T13:14:44;20.00;28.20
70079;DHT22;57451;52.496;13.456;2023-03-01T13:17:33;20.00;28.20
70079;DHT22;57451;52.496;13.456;2023-03-01T13:20:00;20.00;26.90
70079;DHT22;57451;52.496;13.456;2023-03-01T13:22:31;19.90;27.40
70079;DHT22;57451;52.496;13.456;2023-03-01T13:25:11;19.90;26.00
70079;DHT22;57451;52.496;13.456;2023-03-01T13:27:40;19.80;26.20
70079;DHT22;57451;52.496;13.456;2023-03-01T13:30:40;19.80;27.80
70079;DHT22;57451;52.496;13.456;2023-03-01T13:33:33;19.80;27.20
70079;DHT22;57451;52.496;13.456;2023-03-01T13:36:01;19.70;27.10
70079;DHT22;57451;52.496;13.456;2023-03-01T13:38:44;19.70;27.30
70079;DHT22;57451;52.496;13.456;2023-03-01T13:41:13;19.80;25.60
70079;DHT22;57451;52.496;13.456;2023-03-01T13:43:42;19.70;26.60
70079;DHT22;57451;52.496;13.456;2023-03-01T13:46:16;19.60;26.00
70079;DHT22;57451;52.496;13.456;2023-03-01T13:48:49;19.60;27.30
70079;DHT22;57451;52.496;13.456;2023-03-01T13:51:22;19.70;26.60
70079;DHT22;57451;52.496;13.456;2023-03-01T13:53:51;19.70;26.20
70079;DHT22;57451;52.496;13.456;2023-03-01T13:56:23;19.80;27.00
70079;DHT22;57451;52.496;13.456;2023-03-01T13:58:53;19.90;25.60
70079;DHT22;57451;52.496;13.456;2023-03-01T14:01:25;20.00;24.60
70079;DHT22;57451;52.496;13.456;2023-03-01T14:03:53;20.00;25.90
70079;DHT22;57451;52.496;13.456;2023-03-01T14:06:22;20.20;26.60
70079;DHT22;57451;52.496;13.456;2023-03-01T14:08:52;20.30;26.70
70079;DHT22;57451;52.496;13.456;2023-03-01T14:11:50;20.50;25.70
70079;DHT22;57451;52.496;13.456;2023-03-01T14:14:34;20.70;24.40
70079;DHT22;57451;52.496;13.456;2023-03-01T14:17:14;20.80;25.30
70079;DHT22;57451;52.496;13.456;2023-03-01T14:19:47;20.90;25.30
70079;DHT22;57451;52.496;13.456;2023-03-01T14:22:20;21.00;25.70
70079;DHT22;57451;52.496;13.456;2023-03-01T14:24:51;21.10;25.90
70079;DHT22;57451;52.496;13.456;2023-03-01T14:27:19;21.30;25.60
70079;DHT22;57451;52.496;13.456;2023-03-01T14:29:54;21.40;25.60
70079;DHT22;57451;52.496;13.456;2023-03-01T14:32:26;21.50;26.40
70079;DHT22;57451;52.496;13.456;2023-03-01T14:34:54;21.70;26.10
70079;DHT22;57451;52.496;13.456;2023-03-01T14:37:25;21.80;23.60
70079;DHT22;57451;52.496;13.456;2023-03-01T14:39:53;21.70;24.50
70079;DHT22;57451;52.496;13.456;2023-03-01T14:42:22;21.60;24.90
70079;DHT22;57451;52.496;13.456;2023-03-01T14:44:51;21.50;25.60
70079;DHT22;57451;52.496;13.456;2023-03-01T14:47:26;21.50;26.40
70079;DHT22;57451;52.496;13.456;2023-03-01T14:49:58;21.60;26.30
70079;DHT22;57451;52.496;13.456;2023-03-01T14:52:34;21.60;26.70
70079;DHT22;57451;52.496;13.456;2023-03-01T14:55:05;21.60;27.30
70079;DHT22;57451;52.496;13.456;2023-03-01T14:57:33;21.60;27.10
70079;DHT22;57451;52.496;13.456;2023-03-01T15:00:03;21.60;27.20
70079;DHT22;57451;52.496;13.456;2023-03-01T15:02:34;21.30;26.70
70079;DHT22;57451;52.496;13.456;2023-03-01T15:05:04;21.20;27.20
70079;DHT22;57451;52.496;13.456;2023-03-01T15:07:37;21.20;27.90
70079;DHT22;57451;52.496;13.456;2023-03-01T15:10:07;21.10;27.10
70079;DHT22;57451;52.496;13.456;2023-03-01T15:12:41;21.00;27.50
70079;DHT22;57451;52.496;13.456;2023-03-01T15:15:35;20.80;26.80
70079;DHT22;57451;52.496;13.456;2023-03-01T15:18:13;20.40;27.00
70079;DHT22;57451;52.496;13.456;2023-03-01T15:20:41;20.20;27.60
70079;DHT22;57451;52.496;13.456;2023-03-01T15:23:19;20.00;27.70
70079;DHT22;57451;52.496;13.456;2023-03-01T15:25:47;19.90;28.10
70079;DHT22;57451;52.496;13.456;2023-03-01T15:28:25;19.60;28.70
70079;DHT22;57451;52.496;13.456;2023-03-01T15:30:55;19.40;27.60
70079;DHT22;57451;52.496;13.456;2023-03-01T15:33:40;19.20;28.30
70079;DHT22;57451;52.496;13.456;2023-03-01T15:36:32;18.90;29.10
70079;DHT22;57451;52.496;13.456;2023-03-01T15:39:00;18.60;29.70
70079;DHT22;57451;52.496;13.456;2023-03-01T15:41:30;18.30;28.80
70079;DHT22;57451;52.496;13.456;2023-03-01T15:43:58;18.10;28.50
70079;DHT22;57451;52.496;13.456;2023-03-01T15:46:28;18.00;28.90
70079;DHT22;57451;52.496;13.456;2023-03-01T15:49:02;17.70;28.80
70079;DHT22;57451;52.496;13.456;2023-03-01T15:51:32;17.40;29.00
70079;DHT22;57451;52.496;13.456;2023-03-01T15:54:04;17.10;29.10